createdAt,value
2023-03-16T00:00:01.309Z,99.99
2023-03-16T00:01:01.334Z,99.99
2023-03-16T00:02:01.501Z,99.99
2023-03-16T00:03:01.342Z,99.99
2023-03-16T00:04:01.296Z,99.99
2023-03-16T00:05:01.257Z,99.99
2023-03-16T00:06:15.925Z,99.99
2023-03-16T00:07:03.924Z,99.99
2023-03-16T00:08:01.253Z,99.99
2023-03-16T00:09:01.250Z,99.99
2023-03-16T00:10:01.206Z,99.99
2023-03-16T00:11:01.202Z,99.99
2023-03-16T00:12:01.185Z,99.99
2023-03-16T00:13:01.185Z,99.99
2023-03-16T00:14:01.170Z,99.99
2023-03-16T00:15:01.177Z,99.99
2023-03-16T00:16:01.193Z,99.99
2023-03-16T00:17:01.141Z,99.99
2023-03-16T00:18:01.156Z,99.99
2023-03-16T00:19:01.127Z,99.99
2023-03-16T00:20:22.111Z,99.99
2023-03-16T00:21:01.107Z,99.99
2023-03-16T00:22:01.107Z,99.79
2023-03-16T00:23:01.100Z,99.79
2023-03-16T00:24:01.076Z,99.99
2023-03-16T00:25:01.079Z,99.99
2023-03-16T00:26:01.053Z,99.99
2023-03-16T00:27:01.045Z,99.99
2023-03-16T00:28:01.032Z,99.99
2023-03-16T00:29:01.051Z,99.99
2023-03-16T00:30:01.013Z,99.99
2023-03-16T00:31:01.010Z,99.99
2023-03-16T00:32:01.012Z,99.99
2023-03-16T00:33:01.034Z,99.99
2023-03-16T00:34:00.977Z,99.99
2023-03-16T00:35:00.967Z,99.99
2023-03-16T00:36:01.002Z,99.99
2023-03-16T00:37:00.924Z,99.99
2023-03-16T00:38:00.918Z,99.99
2023-03-16T00:39:00.904Z,99.99
2023-03-16T00:40:00.925Z,99.99
2023-03-16T00:41:00.883Z,99.99
2023-03-16T00:42:00.882Z,99.99
2023-03-16T00:43:00.866Z,99.57
2023-03-16T00:44:00.850Z,99.99
2023-03-16T00:45:00.843Z,99.99
2023-03-16T00:46:00.915Z,99.99
2023-03-16T00:47:00.830Z,99.99
2023-03-16T00:48:00.820Z,99.99
2023-03-16T00:49:00.810Z,99.99
2023-03-16T00:50:00.796Z,99.99
2023-03-16T00:51:00.794Z,99.99
2023-03-16T00:52:00.791Z,99.99
2023-03-16T00:53:00.765Z,99.99
2023-03-16T00:54:00.764Z,99.99
2023-03-16T00:55:00.742Z,99.99
2023-03-16T00:56:00.734Z,99.99
2023-03-16T00:57:00.740Z,99.99
2023-03-16T00:58:00.713Z,99.99
2023-03-16T00:59:00.702Z,99.99
2023-03-16T01:00:00.704Z,99.99
2023-03-16T01:01:00.745Z,99.99
2023-03-16T01:02:00.672Z,99.99
2023-03-16T01:03:00.729Z,99.99
2023-03-16T01:04:00.660Z,99.99
2023-03-16T01:05:00.639Z,99.99
2023-03-16T01:06:00.639Z,99.99
2023-03-16T01:07:00.633Z,99.99
2023-03-16T01:08:00.618Z,99.99
2023-03-16T01:09:00.625Z,99.99
2023-03-16T01:10:00.604Z,99.99
2023-03-16T01:11:00.582Z,99.99
2023-03-16T01:12:00.569Z,99.99
2023-03-16T01:13:00.587Z,99.99
2023-03-16T01:14:00.546Z,99.99
2023-03-16T01:15:00.567Z,99.99
2023-03-16T01:16:00.534Z,99.99
2023-03-16T01:17:00.561Z,99.99
2023-03-16T01:18:00.542Z,99.99
2023-03-16T01:19:00.503Z,99.99
2023-03-16T01:20:00.518Z,99.99
2023-03-16T01:21:00.481Z,99.99
2023-03-16T01:22:00.476Z,99.99
2023-03-16T01:23:00.466Z,99.99
2023-03-16T01:24:00.497Z,99.99
2023-03-16T01:25:00.431Z,99.99
2023-03-16T01:26:00.448Z,99.99
2023-03-16T01:27:00.420Z,99.99
2023-03-16T01:28:00.421Z,99.99
2023-03-16T01:29:00.406Z,99.99
2023-03-16T01:30:00.387Z,99.99
2023-03-16T01:31:00.453Z,99.99
2023-03-16T01:32:00.368Z,99.99
2023-03-16T01:33:00.415Z,99.99
2023-03-16T01:34:00.353Z,99.99
2023-03-16T01:35:00.334Z,99.99
2023-03-16T01:36:00.396Z,99.99
2023-03-16T01:37:00.319Z,99.99
2023-03-16T01:38:00.312Z,99.99
2023-03-16T01:39:00.330Z,99.99
2023-03-16T01:40:00.313Z,99.99
2023-03-16T01:41:00.287Z,99.99
2023-03-16T01:42:00.267Z,99.99
2023-03-16T01:43:00.262Z,99.99
2023-03-16T01:44:00.246Z,99.99
2023-03-16T01:45:00.304Z,99.99
2023-03-16T01:46:00.309Z,99.99
2023-03-16T01:47:00.209Z,99.99
2023-03-16T01:48:00.206Z,99.99
2023-03-16T01:49:00.192Z,99.99
2023-03-16T01:50:00.210Z,99.99
2023-03-16T01:51:00.179Z,99.99
2023-03-16T01:52:00.174Z,99.99
2023-03-16T01:53:00.157Z,99.99
2023-03-16T01:54:00.209Z,99.99
2023-03-16T01:55:00.133Z,99.99
2023-03-16T01:56:00.145Z,99.99
2023-03-16T01:57:00.113Z,99.99
2023-03-16T01:58:00.118Z,99.99
2023-03-16T01:59:00.115Z,99.99
2023-03-16T02:00:00.111Z,99.99
2023-03-16T02:01:00.201Z,99.99
2023-03-16T02:02:00.126Z,99.99
2023-03-16T02:03:00.067Z,99.99
2023-03-16T02:04:00.076Z,99.99
2023-03-16T02:05:00.046Z,99.99
2023-03-16T02:06:00.036Z,99.99
2023-03-16T02:07:00.005Z,99.99
2023-03-16T02:08:00.038Z,99.99
2023-03-16T02:08:59.986Z,99.99
2023-03-16T02:09:59.981Z,99.99
2023-03-16T02:10:59.976Z,99.99
2023-03-16T02:11:59.960Z,99.99
2023-03-16T02:12:59.952Z,99.99
2023-03-16T02:13:59.962Z,99.99
2023-03-16T02:14:59.934Z,99.99
2023-03-16T02:15:59.985Z,99.99
2023-03-16T02:16:59.904Z,99.99
2023-03-16T02:17:59.907Z,99.99
2023-03-16T02:18:59.884Z,99.99
2023-03-16T02:19:59.933Z,99.99
2023-03-16T02:20:59.864Z,99.99
2023-03-16T02:21:59.872Z,99.99
2023-03-16T02:22:59.842Z,99.99
2023-03-16T02:23:59.839Z,99.99
2023-03-16T02:24:59.879Z,99.99
2023-03-16T02:25:59.820Z,99.99
2023-03-16T02:26:59.814Z,99.99
2023-03-16T02:27:59.802Z,99.99
2023-03-16T02:28:59.788Z,99.99
2023-03-16T02:29:59.826Z,99.99
2023-03-16T02:30:59.819Z,99.99
2023-03-16T02:31:59.762Z,99.99
2023-03-16T02:32:59.808Z,99.99
2023-03-16T02:33:59.746Z,99.99
2023-03-16T02:34:59.721Z,99.99
2023-03-16T02:35:59.789Z,99.99
2023-03-16T02:36:59.712Z,99.99
2023-03-16T02:37:59.694Z,99.99
2023-03-16T02:38:59.690Z,99.99
2023-03-16T02:39:59.682Z,99.99
2023-03-16T02:40:59.665Z,99.99
2023-03-16T02:41:59.680Z,99.99
2023-03-16T02:42:59.649Z,99.99
2023-03-16T02:43:59.651Z,99.99
2023-03-16T02:44:59.637Z,99.99
2023-03-16T02:45:59.722Z,99.99
2023-03-16T02:46:59.606Z,99.99
2023-03-16T02:47:59.593Z,99.99
2023-03-16T02:48:59.593Z,99.99
2023-03-16T02:49:59.570Z,99.99
2023-03-16T02:50:59.571Z,99.99
2023-03-16T02:51:59.562Z,99.99
2023-03-16T02:52:59.565Z,99.99
2023-03-16T02:53:59.544Z,99.99
2023-03-16T02:54:59.531Z,99.99
2023-03-16T02:55:59.508Z,99.99
2023-03-16T02:56:59.504Z,99.99
2023-03-16T02:57:59.528Z,99.99
2023-03-16T02:58:59.489Z,99.99
2023-03-16T02:59:59.477Z,99.99
2023-03-16T03:00:59.458Z,99.99
2023-03-16T03:01:59.449Z,99.99
2023-03-16T03:02:59.547Z,99.99
2023-03-16T03:03:59.459Z,99.99
2023-03-16T03:04:59.426Z,99.99
2023-03-16T03:05:59.412Z,99.99
2023-03-16T03:06:59.404Z,99.99
2023-03-16T03:07:59.405Z,99.99
2023-03-16T03:08:59.383Z,99.99
2023-03-16T03:09:59.378Z,99.99
2023-03-16T03:10:59.358Z,99.99
2023-03-16T03:11:59.355Z,99.99
2023-03-16T03:12:59.386Z,99.99
2023-03-16T03:13:59.363Z,99.99
2023-03-16T03:14:59.321Z,99.99
2023-03-16T03:15:59.461Z,99.99
2023-03-16T03:16:59.309Z,99.99
2023-03-16T03:17:59.295Z,99.99
2023-03-16T03:18:59.311Z,99.99
2023-03-16T03:19:59.275Z,99.99
2023-03-16T03:20:59.260Z,99.99
2023-03-16T03:21:59.257Z,99.99
2023-03-16T03:22:59.238Z,99.99
2023-03-16T03:23:59.270Z,99.99
2023-03-16T03:24:59.230Z,99.99
2023-03-16T03:25:59.237Z,99.99
2023-03-16T03:26:59.199Z,99.99
2023-03-16T03:27:59.279Z,99.99
2023-03-16T03:28:59.210Z,99.99
2023-03-16T03:29:59.206Z,99.99
2023-03-16T03:30:59.160Z,99.99
2023-03-16T03:31:59.188Z,99.99
2023-03-16T03:32:59.232Z,99.99
2023-03-16T03:33:59.133Z,99.99
2023-03-16T03:34:59.118Z,99.99
2023-03-16T03:35:59.212Z,99.99
2023-03-16T03:36:59.121Z,99.99
2023-03-16T03:37:59.093Z,99.99
2023-03-16T03:38:59.090Z,99.99
2023-03-16T03:39:59.070Z,99.99
2023-03-16T03:40:59.079Z,99.99
2023-03-16T03:41:59.066Z,99.99
2023-03-16T03:42:59.036Z,99.99
2023-03-16T03:43:59.038Z,99.99
2023-03-16T03:44:59.015Z,99.99
2023-03-16T03:45:59.200Z,99.99
2023-03-16T03:46:59.101Z,99.99
2023-03-16T03:47:59.039Z,99.99
2023-03-16T03:48:58.976Z,99.99
2023-03-16T03:49:58.971Z,99.99
2023-03-16T03:50:58.964Z,99.99
2023-03-16T03:51:58.947Z,99.99
2023-03-16T03:52:58.950Z,99.99
2023-03-16T03:53:58.949Z,99.99
2023-03-16T03:54:58.951Z,99.99
2023-03-16T03:55:58.901Z,99.99
2023-03-16T03:56:58.894Z,99.99
2023-03-16T03:57:58.914Z,99.99
2023-03-16T03:58:58.887Z,99.99
2023-03-16T03:59:58.883Z,99.99
2023-03-16T04:00:58.855Z,99.99
2023-03-16T04:01:58.885Z,99.99
2023-03-16T04:02:58.943Z,99.99
2023-03-16T04:03:58.834Z,99.99
2023-03-16T04:04:58.838Z,99.99
2023-03-16T04:05:58.813Z,99.99
2023-03-16T04:06:58.799Z,99.99
2023-03-16T04:07:58.813Z,99.99
2023-03-16T04:08:58.779Z,99.99
2023-03-16T04:09:58.776Z,99.99
2023-03-16T04:10:58.766Z,99.99
2023-03-16T04:11:58.770Z,99.99
2023-03-16T04:12:58.729Z,99.99
2023-03-16T04:13:58.723Z,99.99
2023-03-16T04:14:58.766Z,99.99
2023-03-16T04:15:58.714Z,99.99
2023-03-16T04:16:58.780Z,99.99
2023-03-16T04:17:58.680Z,99.99
2023-03-16T04:18:58.681Z,99.99
2023-03-16T04:19:58.690Z,99.99
2023-03-16T04:20:58.684Z,99.99
2023-03-16T04:21:58.644Z,99.99
2023-03-16T04:22:58.845Z,99.99
2023-03-16T04:23:58.642Z,99.99
2023-03-16T04:24:58.613Z,99.99
2023-03-16T04:25:58.609Z,99.99
2023-03-16T04:26:58.611Z,99.99
2023-03-16T04:27:58.596Z,99.99
2023-03-16T04:28:58.574Z,99.99
2023-03-16T04:29:58.561Z,99.99
2023-03-16T04:30:58.635Z,99.99
2023-03-16T04:31:58.536Z,99.99
2023-03-16T04:32:58.607Z,99.99
2023-03-16T04:33:58.528Z,99.99
2023-03-16T04:34:58.518Z,99.99
2023-03-16T04:35:58.537Z,99.99
2023-03-16T04:36:58.547Z,99.99
2023-03-16T04:37:58.480Z,99.99
2023-03-16T04:38:58.472Z,99.99
2023-03-16T04:39:58.462Z,99.99
2023-03-16T04:40:58.458Z,99.99
2023-03-16T04:41:58.443Z,99.99
2023-03-16T04:42:58.457Z,99.99
2023-03-16T04:43:58.436Z,99.99
2023-03-16T04:44:58.413Z,99.99
2023-03-16T04:45:58.450Z,99.99
2023-03-16T04:46:58.405Z,99.99
2023-03-16T04:47:58.382Z,99.99
2023-03-16T04:48:58.613Z,99.99
2023-03-16T04:49:58.366Z,99.99
2023-03-16T04:50:58.367Z,99.99
2023-03-16T04:51:58.335Z,99.99
2023-03-16T04:52:58.325Z,99.99
2023-03-16T04:53:58.331Z,99.99
2023-03-16T04:54:58.320Z,99.99
2023-03-16T04:55:58.338Z,99.99
2023-03-16T04:56:58.325Z,99.99
2023-03-16T04:57:58.282Z,99.99
2023-03-16T04:58:58.280Z,99.99
2023-03-16T04:59:58.266Z,99.99
2023-03-16T05:00:58.284Z,99.99
2023-03-16T05:01:58.362Z,99.99
2023-03-16T05:02:58.231Z,99.99
2023-03-16T05:03:59.725Z,99.99
2023-03-16T05:04:58.216Z,99.99
2023-03-16T05:05:58.286Z,99.99
2023-03-16T05:06:58.207Z,99.99
2023-03-16T05:07:58.191Z,99.99
2023-03-16T05:08:58.110Z,99.99
2023-03-16T05:09:58.159Z,99.99
2023-03-16T05:10:58.133Z,99.99
2023-03-16T05:11:58.117Z,99.99
2023-03-16T05:12:58.132Z,99.99
2023-03-16T05:13:58.113Z,99.99
2023-03-16T05:14:58.118Z,99.99
2023-03-16T05:15:58.169Z,99.99
2023-03-16T05:16:58.052Z,99.99
2023-03-16T05:17:58.095Z,99.99
2023-03-16T05:18:58.072Z,99.99
2023-03-16T05:19:58.072Z,99.99
2023-03-16T05:20:57.999Z,99.99
2023-03-16T05:21:57.987Z,99.99
2023-03-16T05:22:57.984Z,99.99
2023-03-16T05:23:57.989Z,99.99
2023-03-16T05:24:57.949Z,99.99
2023-03-16T05:25:57.962Z,99.99
2023-03-16T05:26:57.936Z,99.99
2023-03-16T05:27:57.950Z,99.99
2023-03-16T05:28:57.932Z,99.99
2023-03-16T05:29:57.895Z,99.99
2023-03-16T05:30:57.952Z,99.99
2023-03-16T05:31:57.910Z,99.99
2023-03-16T05:32:58.059Z,99.99
2023-03-16T05:33:57.914Z,99.99
2023-03-16T05:34:57.861Z,99.99
2023-03-16T05:35:57.921Z,99.99
2023-03-16T05:36:57.849Z,99.99
2023-03-16T05:37:57.835Z,99.99
2023-03-16T05:38:57.812Z,99.99
2023-03-16T05:39:57.878Z,99.99
2023-03-16T05:40:57.789Z,99.99
2023-03-16T05:41:57.780Z,99.99
2023-03-16T05:42:57.795Z,99.99
2023-03-16T05:43:57.767Z,99.99
2023-03-16T05:44:57.748Z,99.99
2023-03-16T05:45:57.878Z,99.99
2023-03-16T05:46:57.876Z,99.99
2023-03-16T05:47:57.753Z,99.99
2023-03-16T05:48:57.719Z,99.99
2023-03-16T05:49:57.996Z,99.99
2023-03-16T05:50:57.698Z,99.99
2023-03-16T05:51:57.678Z,99.99
2023-03-16T05:52:57.676Z,99.99
2023-03-16T05:53:57.669Z,99.99
2023-03-16T05:54:57.675Z,99.99
2023-03-16T05:55:57.670Z,99.99
2023-03-16T05:56:57.627Z,99.99
2023-03-16T05:57:57.627Z,99.99
2023-03-16T05:58:57.611Z,99.99
2023-03-16T05:59:57.596Z,99.99
2023-03-16T06:00:57.603Z,99.99
2023-03-16T06:01:57.638Z,99.99
2023-03-16T06:02:57.683Z,99.99
2023-03-16T06:03:57.574Z,99.99
2023-03-16T06:04:57.550Z,99.99
2023-03-16T06:05:57.542Z,99.99
2023-03-16T06:06:57.523Z,99.99
2023-03-16T06:07:57.539Z,99.99
2023-03-16T06:08:57.508Z,99.99
2023-03-16T06:09:57.500Z,99.99
2023-03-16T06:10:57.493Z,99.99
2023-03-16T06:11:57.478Z,99.99
2023-03-16T06:12:59.782Z,99.99
2023-03-16T06:13:57.479Z,99.99
2023-03-16T06:14:57.450Z,99.99
2023-03-16T06:15:57.480Z,99.99
2023-03-16T06:16:57.438Z,99.99
2023-03-16T06:17:57.420Z,99.99
2023-03-16T06:18:59.745Z,99.99
2023-03-16T06:19:57.406Z,99.99
2023-03-16T06:20:57.439Z,99.99
2023-03-16T06:21:57.430Z,99.99
2023-03-16T06:22:57.378Z,99.99
2023-03-16T06:23:57.353Z,99.99
2023-03-16T06:24:57.352Z,99.99
2023-03-16T06:25:57.328Z,99.99
2023-03-16T06:26:57.333Z,99.99
2023-03-16T06:27:57.320Z,99.99
2023-03-16T06:28:57.303Z,99.99
2023-03-16T06:29:57.293Z,99.99
2023-03-16T06:30:57.314Z,99.99
2023-03-16T06:31:57.506Z,99.99
2023-03-16T06:32:57.312Z,99.99
2023-03-16T06:33:57.275Z,99.99
2023-03-16T06:34:57.246Z,99.99
2023-03-16T06:35:57.273Z,99.99
2023-03-16T06:36:57.223Z,99.99
2023-03-16T06:37:57.238Z,99.63
2023-03-16T06:38:57.201Z,99.99
2023-03-16T06:39:57.188Z,99.99
2023-03-16T06:40:57.180Z,99.99
2023-03-16T06:41:57.191Z,99.99
2023-03-16T06:42:57.190Z,99.99
2023-03-16T06:43:57.153Z,99.99
2023-03-16T06:44:57.137Z,99.99
2023-03-16T06:45:57.155Z,99.99
2023-03-16T06:46:57.124Z,99.99
2023-03-16T06:47:57.139Z,99.99
2023-03-16T06:48:57.103Z,99.99
2023-03-16T06:49:57.097Z,99.99
2023-03-16T06:50:57.085Z,99.99
2023-03-16T06:51:57.096Z,99.99
2023-03-16T06:52:57.057Z,99.99
2023-03-16T06:53:57.048Z,99.99
2023-03-16T06:54:57.056Z,99.99
2023-03-16T06:55:57.043Z,99.99
2023-03-16T06:56:57.017Z,99.99
2023-03-16T06:57:57.030Z,99.99
2023-03-16T06:58:56.996Z,99.99
2023-03-16T06:59:56.998Z,99.99
2023-03-16T07:00:57.012Z,99.99
2023-03-16T07:01:56.973Z,99.99
2023-03-16T07:02:58.891Z,99.99
2023-03-16T07:03:56.988Z,99.99
2023-03-16T07:04:56.972Z,99.99
2023-03-16T07:05:56.925Z,99.99
2023-03-16T07:06:56.918Z,98.90
2023-03-16T07:07:56.911Z,99.99
2023-03-16T07:08:56.904Z,99.99
2023-03-16T07:09:56.883Z,99.99
2023-03-16T07:10:56.870Z,99.99
2023-03-16T07:11:56.889Z,99.99
2023-03-16T07:12:56.849Z,99.99
2023-03-16T07:13:56.858Z,99.99
2023-03-16T07:14:56.839Z,99.99
2023-03-16T07:15:56.816Z,99.99
2023-03-16T07:16:56.921Z,99.99
2023-03-16T07:17:56.819Z,99.99
2023-03-16T07:18:56.801Z,99.99
2023-03-16T07:19:56.791Z,99.99
2023-03-16T07:20:56.787Z,99.99
2023-03-16T07:21:56.752Z,99.99
2023-03-16T07:22:56.748Z,99.99
2023-03-16T07:23:56.732Z,99.99
2023-03-16T07:24:56.806Z,99.99
2023-03-16T07:25:56.752Z,99.99
2023-03-16T07:26:56.756Z,99.99
2023-03-16T07:27:56.699Z,99.99
2023-03-16T07:28:58.130Z,98.96
2023-03-16T07:29:56.691Z,99.99
2023-03-16T07:31:03.854Z,99.99
2023-03-16T07:31:56.708Z,99.99
2023-03-16T07:32:56.719Z,99.99
2023-03-16T07:33:56.654Z,99.99
2023-03-16T07:34:58.769Z,99.99
2023-03-16T07:35:56.634Z,99.69
2023-03-16T07:36:56.614Z,99.69
2023-03-16T07:37:56.612Z,99.27
2023-03-16T07:38:56.602Z,99.99
2023-03-16T07:39:56.586Z,99.99
2023-03-16T07:40:56.563Z,99.99
2023-03-16T07:41:56.551Z,99.85
2023-03-16T07:42:56.539Z,99.99
2023-03-16T07:43:56.546Z,99.99
2023-03-16T07:44:56.530Z,99.99
2023-03-16T07:45:56.560Z,99.99
2023-03-16T07:46:56.500Z,99.13
2023-03-16T07:47:56.510Z,98.60
2023-03-16T07:48:56.504Z,99.96
2023-03-16T07:49:56.478Z,99.99
2023-03-16T07:50:56.456Z,99.99
2023-03-16T07:51:56.444Z,99.99
2023-03-16T07:52:56.440Z,99.99
2023-03-16T07:53:56.431Z,99.99
2023-03-16T07:54:56.434Z,98.29
2023-03-16T07:55:56.404Z,99.99
2023-03-16T07:56:56.396Z,99.99
2023-03-16T07:57:56.387Z,99.99
2023-03-16T07:58:56.375Z,99.99
2023-03-16T07:59:56.397Z,99.44
2023-03-16T08:00:56.349Z,99.99
2023-03-16T08:01:56.352Z,99.99
2023-03-16T08:02:56.335Z,99.99
2023-03-16T08:03:56.332Z,99.99
2023-03-16T08:04:56.351Z,99.91
2023-03-16T08:05:56.304Z,99.81
2023-03-16T08:06:56.317Z,99.99
2023-03-16T08:07:56.293Z,99.99
2023-03-16T08:08:56.276Z,99.99
2023-03-16T08:09:56.258Z,99.99
2023-03-16T08:10:56.792Z,99.71
2023-03-16T08:11:56.240Z,99.99
2023-03-16T08:12:56.320Z,99.71
2023-03-16T08:13:56.221Z,99.99
2023-03-16T08:14:56.222Z,99.99
2023-03-16T08:15:56.307Z,99.99
2023-03-16T08:16:56.202Z,99.50
2023-03-16T08:17:56.185Z,99.08
2023-03-16T08:18:56.176Z,99.99
2023-03-16T08:19:56.159Z,99.60
2023-03-16T08:20:56.161Z,98.04
2023-03-16T08:22:01.475Z,97.72
2023-03-16T08:22:56.137Z,97.94
2023-03-16T08:23:56.147Z,99.14
2023-03-16T08:24:56.106Z,99.35
2023-03-16T08:25:56.112Z,99.99
2023-03-16T08:26:56.102Z,99.99
2023-03-16T08:27:56.091Z,99.99
2023-03-16T08:28:56.118Z,99.99
2023-03-16T08:29:56.077Z,99.04
2023-03-16T08:30:56.112Z,99.76
2023-03-16T08:31:56.059Z,99.14
2023-03-16T08:32:56.131Z,99.24
2023-03-16T08:33:56.024Z,99.99
2023-03-16T08:34:56.013Z,99.99
2023-03-16T08:35:56.139Z,99.99
2023-03-16T08:36:55.982Z,99.99
2023-03-16T08:37:56.007Z,99.99
2023-03-16T08:39:06.408Z,99.30
2023-03-16T08:39:55.962Z,99.99
2023-03-16T08:40:55.968Z,99.99
2023-03-16T08:41:55.934Z,99.82
2023-03-16T08:42:55.941Z,99.99
2023-03-16T08:43:55.948Z,98.99
2023-03-16T08:44:55.904Z,99.82
2023-03-16T08:45:56.016Z,97.74
2023-03-16T08:46:56.018Z,99.51
2023-03-16T08:47:55.876Z,98.68
2023-03-16T08:48:55.879Z,97.53
2023-03-16T08:49:55.862Z,97.85
2023-03-16T08:50:55.866Z,98.68
2023-03-16T08:51:55.837Z,98.11
2023-03-16T08:52:55.827Z,98.53
2023-03-16T08:53:55.810Z,99.46
2023-03-16T08:55:02.927Z,99.05
2023-03-16T08:55:55.796Z,97.17
2023-03-16T08:56:55.842Z,97.70
2023-03-16T08:57:55.765Z,98.74
2023-03-16T08:58:55.752Z,98.74
2023-03-16T08:59:55.766Z,97.17
2023-03-16T09:00:55.745Z,97.80
2023-03-16T09:01:55.834Z,97.17
2023-03-16T09:02:55.739Z,98.84
2023-03-16T09:03:55.727Z,98.43
2023-03-16T09:04:55.703Z,98.63
2023-03-16T09:05:55.688Z,96.34
2023-03-16T09:07:09.005Z,97.17
2023-03-16T09:07:55.685Z,97.80
2023-03-16T09:08:55.649Z,99.15
2023-03-16T09:09:55.658Z,97.28
2023-03-16T09:10:55.641Z,97.28
2023-03-16T09:11:55.622Z,98.11
2023-03-16T09:12:55.616Z,99.15
2023-03-16T09:13:55.617Z,98.43
2023-03-16T09:14:55.589Z,97.96
2023-03-16T09:15:55.683Z,97.96
2023-03-16T09:16:55.574Z,97.96
2023-03-16T09:17:55.558Z,96.72
2023-03-16T09:18:55.569Z,97.34
2023-03-16T09:20:01.363Z,97.44
2023-03-16T09:20:55.541Z,97.13
2023-03-16T09:21:55.560Z,97.55
2023-03-16T09:22:55.530Z,97.24
2023-03-16T09:23:55.513Z,98.27
2023-03-16T09:24:55.493Z,99.01
2023-03-16T09:25:55.477Z,97.96
2023-03-16T09:26:55.511Z,97.40
2023-03-16T09:27:55.462Z,97.71
2023-03-16T09:28:55.467Z,95.94
2023-03-16T09:29:55.451Z,95.94
2023-03-16T09:30:55.446Z,95.32
2023-03-16T09:31:55.459Z,94.59
2023-03-16T09:32:55.442Z,95.11
2023-03-16T09:33:55.401Z,97.50
2023-03-16T09:34:55.404Z,94.13
2023-03-16T09:35:55.452Z,96.42
2023-03-16T09:36:55.382Z,97.67
2023-03-16T09:38:05.554Z,97.56
2023-03-16T09:38:55.358Z,97.45
2023-03-16T09:39:58.016Z,96.94
2023-03-16T09:40:55.352Z,94.55
2023-03-16T09:41:55.336Z,96.31
2023-03-16T09:42:55.343Z,94.76
2023-03-16T09:43:55.297Z,95.17
2023-03-16T09:44:55.300Z,96.21
2023-03-16T09:45:55.355Z,95.69
2023-03-16T09:46:55.273Z,94.24
2023-03-16T09:47:55.261Z,96.21
2023-03-16T09:48:55.246Z,97.52
2023-03-16T09:49:55.257Z,95.65
2023-03-16T09:50:55.802Z,95.96
2023-03-16T09:51:55.231Z,95.23
2023-03-16T09:52:55.209Z,95.03
2023-03-16T09:53:55.205Z,95.13
2023-03-16T09:54:55.190Z,95.03
2023-03-16T09:55:55.179Z,94.26
2023-03-16T09:56:55.186Z,93.74
2023-03-16T09:57:55.155Z,94.78
2023-03-16T09:58:55.145Z,94.36
2023-03-16T09:59:55.136Z,94.88
2023-03-16T10:00:55.165Z,95.19
2023-03-16T10:01:55.137Z,95.50
2023-03-16T10:02:55.136Z,94.88
2023-03-16T10:03:55.117Z,95.61
2023-03-16T10:04:55.093Z,95.61
2023-03-16T10:05:55.078Z,96.02
2023-03-16T10:06:55.060Z,93.43
2023-03-16T10:07:55.059Z,91.72
2023-03-16T10:08:55.057Z,92.24
2023-03-16T10:09:55.049Z,92.97
2023-03-16T10:10:55.023Z,92.03
2023-03-16T10:11:55.021Z,93.59
2023-03-16T10:12:55.007Z,94.84
2023-03-16T10:13:55.002Z,93.49
2023-03-16T10:14:55.034Z,94.84
2023-03-16T10:15:54.966Z,93.70
2023-03-16T10:16:55.051Z,94.37
2023-03-16T10:17:54.958Z,93.44
2023-03-16T10:18:55.890Z,91.47
2023-03-16T10:19:54.945Z,91.78
2023-03-16T10:20:54.945Z,92.82
2023-03-16T10:21:54.906Z,92.72
2023-03-16T10:22:54.903Z,90.75
2023-03-16T10:23:54.906Z,91.68
2023-03-16T10:24:54.887Z,91.74
2023-03-16T10:25:54.921Z,92.98
2023-03-16T10:26:54.861Z,93.81
2023-03-16T10:27:54.861Z,93.60
2023-03-16T10:28:54.867Z,90.29
2023-03-16T10:29:54.832Z,92.05
2023-03-16T10:30:54.821Z,89.67
2023-03-16T10:31:54.884Z,91.74
2023-03-16T10:32:54.880Z,90.97
2023-03-16T10:33:54.794Z,92.84
2023-03-16T10:34:54.794Z,93.15
2023-03-16T10:35:54.788Z,93.98
2023-03-16T10:36:54.762Z,94.29
2023-03-16T10:37:54.757Z,94.08
2023-03-16T10:38:54.742Z,94.49
2023-03-16T10:39:54.849Z,90.66
2023-03-16T10:40:54.743Z,93.56
2023-03-16T10:41:54.707Z,94.91
2023-03-16T10:42:54.705Z,94.18
2023-03-16T10:43:54.685Z,92.94
2023-03-16T10:44:54.682Z,95.12
2023-03-16T10:45:54.797Z,95.12
2023-03-16T10:46:54.694Z,94.81
2023-03-16T10:47:54.651Z,92.94
2023-03-16T10:48:54.663Z,92.28
2023-03-16T10:49:54.647Z,91.76
2023-03-16T10:50:54.639Z,91.45
2023-03-16T10:51:54.644Z,91.14
2023-03-16T10:52:54.613Z,91.60
2023-03-16T10:53:54.596Z,89.21
2023-03-16T10:54:54.598Z,91.91
2023-03-16T10:55:54.582Z,94.49
2023-03-16T10:56:54.573Z,92.80
2023-03-16T10:57:54.581Z,92.07
2023-03-16T10:58:54.555Z,92.49
2023-03-16T10:59:54.533Z,92.28
2023-03-16T11:00:54.536Z,91.55
2023-03-16T11:01:54.525Z,91.82
2023-03-16T11:02:54.510Z,91.51
2023-03-16T11:03:54.521Z,90.16
2023-03-16T11:04:54.688Z,91.09
2023-03-16T11:05:54.482Z,89.44
2023-03-16T11:06:54.476Z,88.30
2023-03-16T11:07:54.469Z,90.64
2023-03-16T11:08:54.467Z,89.71
2023-03-16T11:09:54.465Z,86.50
2023-03-16T11:10:56.129Z,85.47
2023-03-16T11:11:54.426Z,86.23
2023-03-16T11:12:54.439Z,84.47
2023-03-16T11:13:54.407Z,87.37
2023-03-16T11:14:54.423Z,85.40
2023-03-16T11:15:54.400Z,86.85
2023-03-16T11:16:54.448Z,87.99
2023-03-16T11:17:54.368Z,87.99
2023-03-16T11:18:54.363Z,87.23
2023-03-16T11:19:54.379Z,85.05
2023-03-16T11:20:54.358Z,89.19
2023-03-16T11:21:54.341Z,88.26
2023-03-16T11:22:54.319Z,86.19
2023-03-16T11:23:54.311Z,86.50
2023-03-16T11:24:54.310Z,85.36
2023-03-16T11:25:54.383Z,83.81
2023-03-16T11:26:54.295Z,87.43
2023-03-16T11:27:54.315Z,88.78
2023-03-16T11:28:54.269Z,86.60
2023-03-16T11:29:54.259Z,87.23
2023-03-16T11:30:54.307Z,88.36
2023-03-16T11:31:54.229Z,85.78
2023-03-16T11:32:54.472Z,90.12
2023-03-16T11:33:54.235Z,87.43
2023-03-16T11:34:54.195Z,86.09
2023-03-16T11:35:59.363Z,83.81
2023-03-16T11:36:54.190Z,83.50
2023-03-16T11:37:54.173Z,85.68
2023-03-16T11:38:55.756Z,86.85
2023-03-16T11:39:54.181Z,86.44
2023-03-16T11:40:54.159Z,85.92
2023-03-16T11:41:54.138Z,87.68
2023-03-16T11:42:54.124Z,86.54
2023-03-16T11:43:54.148Z,85.30
2023-03-16T11:44:54.114Z,85.92
2023-03-16T11:45:54.173Z,87.78
2023-03-16T11:46:54.096Z,87.99
2023-03-16T11:47:54.075Z,87.68
2023-03-16T11:48:54.085Z,88.71
2023-03-16T11:49:54.055Z,87.68
2023-03-16T11:50:54.048Z,87.06
2023-03-16T11:51:54.039Z,86.65
2023-03-16T11:52:54.026Z,89.03
2023-03-16T11:53:54.012Z,87.37
2023-03-16T11:54:54.047Z,88.20
2023-03-16T11:55:53.995Z,86.54
2023-03-16T11:56:53.983Z,87.57
2023-03-16T11:57:53.974Z,87.68
2023-03-16T11:58:53.955Z,86.44
2023-03-16T12:00:01.038Z,89.19
2023-03-16T12:00:53.954Z,87.12
2023-03-16T12:02:00.157Z,85.36
2023-03-16T12:02:54.069Z,86.29
2023-03-16T12:03:53.991Z,87.12
2023-03-16T12:04:53.913Z,88.88
2023-03-16T12:05:53.884Z,85.68
2023-03-16T12:06:53.880Z,85.57
2023-03-16T12:07:53.876Z,86.19
2023-03-16T12:08:53.858Z,85.88
2023-03-16T12:09:53.873Z,85.36
2023-03-16T12:10:53.840Z,86.50
2023-03-16T12:11:53.882Z,86.40
2023-03-16T12:12:53.816Z,88.16
2023-03-16T12:13:53.807Z,85.78
2023-03-16T12:14:53.848Z,85.88
2023-03-16T12:15:53.889Z,87.12
2023-03-16T12:16:53.861Z,87.33
2023-03-16T12:17:53.778Z,84.74
2023-03-16T12:18:53.758Z,84.12
2023-03-16T12:19:53.759Z,83.81
2023-03-16T12:20:53.737Z,84.22
2023-03-16T12:21:53.732Z,83.81
2023-03-16T12:22:53.743Z,85.26
2023-03-16T12:23:53.706Z,86.09
2023-03-16T12:24:53.699Z,85.26
2023-03-16T12:25:53.722Z,85.36
2023-03-16T12:26:53.689Z,83.50
2023-03-16T12:27:53.668Z,82.88
2023-03-16T12:28:53.657Z,84.74
2023-03-16T12:29:53.654Z,87.02
2023-03-16T12:30:53.638Z,84.74
2023-03-16T12:31:53.723Z,82.88
2023-03-16T12:32:53.740Z,82.36
2023-03-16T12:33:53.607Z,83.29
2023-03-16T12:34:53.714Z,83.50
2023-03-16T12:35:53.669Z,84.33
2023-03-16T12:36:53.581Z,84.53
2023-03-16T12:37:53.586Z,84.74
2023-03-16T12:38:53.586Z,87.23
2023-03-16T12:39:53.558Z,82.98
2023-03-16T12:40:53.536Z,85.36
2023-03-16T12:41:53.527Z,86.50
2023-03-16T12:42:53.524Z,82.67
2023-03-16T12:43:53.549Z,83.81
2023-03-16T12:44:53.517Z,85.99
2023-03-16T12:45:53.523Z,86.19
2023-03-16T12:46:53.479Z,85.99
2023-03-16T12:47:53.472Z,84.22
2023-03-16T12:48:53.476Z,85.47
2023-03-16T12:49:53.450Z,84.33
2023-03-16T12:50:53.449Z,86.81
2023-03-16T12:51:53.426Z,85.57